sensor_id;sensor_type;location;lat;lon;timestamp;pressure;altitude;pressure_sealevel;temperature;humidity
24752;BME280;27246;52.376;4.628;2023-11-21T00:03:37;100914.13;;;10.17;100.00
24752;BME280;27246;52.376;4.628;2023-11-21T00:08:39;100918.41;;;10.19;100.00
24752;BME280;27246;52.376;4.628;2023-11-21T00:13:41;100917.88;;;10.16;100.00
24752;BME280;27246;52.376;4.628;2023-11-21T00:18:45;100922.03;;;10.20;100.00
24752;BME280;27246;52.376;4.628;2023-11-21T00:23:51;100933.03;;;10.20;100.00
24752;BME280;27246;52.376;4.628;2023-11-21T00:28:53;100928.88;;;10.24;100.00
24752;BME280;27246;52.376;4.628;2023-11-21T00:33:55;100926.47;;;10.29;100.00
24752;BME280;27246;52.376;4.628;2023-11-21T00:38:57;100934.56;;;10.31;100.00
24752;BME280;27246;52.376;4.628;2023-11-21T00:44:00;100927.00;;;10.33;100.00
24752;BME280;27246;52.376;4.628;2023-11-21T00:49:03;100930.28;;;10.36;100.00
24752;BME280;27246;52.376;4.628;2023-11-21T00:54:07;100944.50;;;10.40;100.00
24752;BME280;27246;52.376;4.628;2023-11-21T00:59:11;100939.50;;;10.44;100.00
24752;BME280;27246;52.376;4.628;2023-11-21T01:04:15;100960.66;;;10.43;100.00
24752;BME280;27246;52.376;4.628;2023-11-21T01:09:19;100964.44;;;10.42;100.00
24752;BME280;27246;52.376;4.628;2023-11-21T01:14:21;100973.72;;;10.41;100.00
24752;BME280;27246;52.376;4.628;2023-11-21T01:19:23;100976.78;;;10.46;100.00
24752;BME280;27246;52.376;4.628;2023-11-21T01:24:25;100988.31;;;10.50;100.00
24752;BME280;27246;52.376;4.628;2023-11-21T01:29:27;100989.34;;;10.49;100.00
24752;BME280;27246;52.376;4.628;2023-11-21T01:34:30;100993.66;;;10.51;100.00
24752;BME280;27246;52.376;4.628;2023-11-21T01:39:32;100998.44;;;10.57;100.00
24752;BME280;27246;52.376;4.628;2023-11-21T01:44:34;101005.69;;;10.58;100.00
24752;BME280;27246;52.376;4.628;2023-11-21T01:49:37;101009.28;;;10.59;100.00
24752;BME280;27246;52.376;4.628;2023-11-21T01:54:41;101014.09;;;10.57;100.00
24752;BME280;27246;52.376;4.628;2023-11-21T01:59:46;101008.75;;;10.55;100.00
24752;BME280;27246;52.376;4.628;2023-11-21T02:04:51;101004.63;;;10.59;100.00
24752;BME280;27246;52.376;4.628;2023-11-21T02:09:54;101014.41;;;10.62;100.00
24752;BME280;27246;52.376;4.628;2023-11-21T02:14:56;101017.69;;;10.66;100.00
24752;BME280;27246;52.376;4.628;2023-11-21T02:19:58;101016.81;;;10.65;100.00
24752;BME280;27246;52.376;4.628;2023-11-21T02:25:01;101020.59;;;10.64;100.00
24752;BME280;27246;52.376;4.628;2023-11-21T02:30:04;101025.94;;;10.66;100.00
24752;BME280;27246;52.376;4.628;2023-11-21T02:35:07;101020.94;;;10.69;100.00
24752;BME280;27246;52.376;4.628;2023-11-21T02:40:11;101025.41;;;10.70;100.00
24752;BME280;27246;52.376;4.628;2023-11-21T02:45:21;101023.88;;;10.68;100.00
24752;BME280;27246;52.376;4.628;2023-11-21T02:50:25;101027.47;;;10.68;100.00
24752;BME280;27246;52.376;4.628;2023-11-21T02:55:27;101027.97;;;10.72;100.00
24752;BME280;27246;52.376;4.628;2023-11-21T03:00:30;101043.28;;;10.74;100.00
24752;BME280;27246;52.376;4.628;2023-11-21T03:05:31;101044.31;;;10.73;100.00
24752;BME280;27246;52.376;4.628;2023-11-21T03:10:36;101049.47;;;10.76;100.00
24752;BME280;27246;52.376;4.628;2023-11-21T03:15:39;101052.38;;;10.83;100.00
24752;BME280;27246;52.376;4.628;2023-11-21T03:20:45;101048.41;;;10.86;100.00
24752;BME280;27246;52.376;4.628;2023-11-21T03:25:51;101058.56;;;10.85;100.00
24752;BME280;27246;52.376;4.628;2023-11-21T03:30:53;101067.34;;;10.80;100.00
24752;BME280;27246;52.376;4.628;2023-11-21T03:35:55;101081.09;;;10.80;100.00
24752;BME280;27246;52.376;4.628;2023-11-21T03:40:57;101081.97;;;10.81;100.00
24752;BME280;27246;52.376;4.628;2023-11-21T03:46:03;101081.44;;;10.77;100.00
24752;BME280;27246;52.376;4.628;2023-11-21T03:51:05;101093.13;;;10.79;100.00
24752;BME280;27246;52.376;4.628;2023-11-21T03:56:09;101098.28;;;10.82;100.00
24752;BME280;27246;52.376;4.628;2023-11-21T04:01:11;101105.84;;;10.80;100.00
24752;BME280;27246;52.376;4.628;2023-11-21T04:06:12;101110.88;;;10.77;100.00
24752;BME280;27246;52.376;4.628;2023-11-21T04:11:16;101124.41;;;10.78;100.00
24752;BME280;27246;52.376;4.628;2023-11-21T04:16:21;101114.78;;;10.74;100.00
24752;BME280;27246;52.376;4.628;2023-11-21T04:21:23;101127.00;;;10.72;100.00
24752;BME280;27246;52.376;4.628;2023-11-21T04:26:25;101138.19;;;10.70;100.00
24752;BME280;27246;52.376;4.628;2023-11-21T04:31:27;101140.09;;;10.70;100.00
24752;BME280;27246;52.376;4.628;2023-11-21T04:36:30;101146.44;;;10.70;100.00
24752;BME280;27246;52.376;4.628;2023-11-21T04:41:34;101157.28;;;10.72;100.00
24752;BME280;27246;52.376;4.628;2023-11-21T04:46:38;101161.41;;;10.76;100.00
24752;BME280;27246;52.376;4.628;2023-11-21T04:51:39;101170.00;;;10.81;100.00
24752;BME280;27246;52.376;4.628;2023-11-21T04:56:41;101176.03;;;10.85;100.00
24752;BME280;27246;52.376;4.628;2023-11-21T05:01:45;101181.19;;;10.88;100.00
24752;BME280;27246;52.376;4.628;2023-11-21T05:06:47;101190.28;;;10.88;100.00
24752;BME280;27246;52.376;4.628;2023-11-21T05:11:49;101187.38;;;10.90;100.00
24752;BME280;27246;52.376;4.628;2023-11-21T05:16:51;101196.84;;;10.95;100.00
24752;BME280;27246;52.376;4.628;2023-11-21T05:21:53;101204.94;;;10.97;100.00
24752;BME280;27246;52.376;4.628;2023-11-21T05:26:55;101218.31;;;11.00;100.00
24752;BME280;27246;52.376;4.628;2023-11-21T05:31:57;101223.66;;;11.01;100.00
24752;BME280;27246;52.376;4.628;2023-11-21T05:36:59;101227.81;;;11.06;100.00
24752;BME280;27246;52.376;4.628;2023-11-21T05:42:01;101237.25;;;11.11;100.00
24752;BME280;27246;52.376;4.628;2023-11-21T05:47:03;101226.94;;;11.05;100.00
24752;BME280;27246;52.376;4.628;2023-11-21T05:52:09;101243.78;;;11.10;100.00
24752;BME280;27246;52.376;4.628;2023-11-21T05:57:11;101246.53;;;11.10;100.00
24752;BME280;27246;52.376;4.628;2023-11-21T06:02:21;101261.34;;;11.17;100.00
24752;BME280;27246;52.376;4.628;2023-11-21T06:07:23;101269.59;;;11.17;100.00
24752;BME280;27246;52.376;4.628;2023-11-21T06:12:25;101273.72;;;11.38;100.00
24752;BME280;27246;52.376;4.628;2023-11-21T06:17:29;101291.78;;;11.49;100.00
24752;BME280;27246;52.376;4.628;2023-11-21T06:22:31;101308.16;;;11.42;100.00
24752;BME280;27246;52.376;4.628;2023-11-21T06:27:41;101303.50;;;11.43;100.00
24752;BME280;27246;52.376;4.628;2023-11-21T06:32:46;101298.31;;;11.89;100.00
24752;BME280;27246;52.376;4.628;2023-11-21T06:37:49;101321.63;;;12.26;100.00
24752;BME280;27246;52.376;4.628;2023-11-21T06:42:51;101318.13;;;11.68;100.00
24752;BME280;27246;52.376;4.628;2023-11-21T06:47:54;101330.00;;;11.60;100.00
24752;BME280;27246;52.376;4.628;2023-11-21T06:52:56;101329.66;;;11.38;100.00
24752;BME280;27246;52.376;4.628;2023-11-21T06:58:00;101334.47;;;11.61;100.00
24752;BME280;27246;52.376;4.628;2023-11-21T07:03:02;101351.19;;;11.84;100.00
24752;BME280;27246;52.376;4.628;2023-11-21T07:08:04;101360.94;;;12.19;100.00
24752;BME280;27246;52.376;4.628;2023-11-21T07:13:06;101376.66;;;12.11;100.00
24752;BME280;27246;52.376;4.628;2023-11-21T07:18:08;101390.44;;;11.78;100.00
24752;BME280;27246;52.376;4.628;2023-11-21T07:23:10;101403.19;;;11.54;100.00
24752;BME280;27246;52.376;4.628;2023-11-21T07:28:13;101406.78;;;11.38;100.00
24752;BME280;27246;52.376;4.628;2023-11-21T07:33:16;101411.25;;;11.31;100.00
24752;BME280;27246;52.376;4.628;2023-11-21T07:38:19;101403.31;;;11.20;100.00
24752;BME280;27246;52.376;4.628;2023-11-21T07:43:21;101411.06;;;11.41;100.00
24752;BME280;27246;52.376;4.628;2023-11-21T07:48:25;101436.72;;;11.25;100.00
24752;BME280;27246;52.376;4.628;2023-11-21T07:53:29;101436.53;;;11.27;100.00
24752;BME280;27246;52.376;4.628;2023-11-21T07:58:32;101439.97;;;11.37;100.00
24752;BME280;27246;52.376;4.628;2023-11-21T08:03:38;101453.63;;;11.55;100.00
24752;BME280;27246;52.376;4.628;2023-11-21T08:08:40;101454.63;;;11.37;100.00
24752;BME280;27246;52.376;4.628;2023-11-21T08:13:42;101459.94;;;11.39;100.00
24752;BME280;27246;52.376;4.628;2023-11-21T08:18:46;101477.91;;;11.51;100.00
24752;BME280;27246;52.376;4.628;2023-11-21T08:23:49;101479.97;;;11.49;100.00
24752;BME280;27246;52.376;4.628;2023-11-21T08:28:55;101486.78;;;11.29;100.00
24752;BME280;27246;52.376;4.628;2023-11-21T08:33:59;101489.53;;;11.29;100.00
24752;BME280;27246;52.376;4.628;2023-11-21T08:39:04;101491.28;;;11.38;100.00
24752;BME280;27246;52.376;4.628;2023-11-21T08:44:07;101498.53;;;11.47;100.00
24752;BME280;27246;52.376;4.628;2023-11-21T08:49:12;101511.03;;;11.84;100.00
24752;BME280;27246;52.376;4.628;2023-11-21T08:54:21;101512.31;;;11.47;100.00
24752;BME280;27246;52.376;4.628;2023-11-21T08:59:23;101514.25;;;11.63;100.00
24752;BME280;27246;52.376;4.628;2023-11-21T09:04:27;101528.09;;;11.29;100.00
24752;BME280;27246;52.376;4.628;2023-11-21T09:09:29;101544.66;;;11.45;100.00
24752;BME280;27246;52.376;4.628;2023-11-21T09:14:32;101547.66;;;11.60;100.00
24752;BME280;27246;52.376;4.628;2023-11-21T09:19:34;101563.16;;;11.69;100.00
24752;BME280;27246;52.376;4.628;2023-11-21T09:24:36;101571.19;;;11.46;100.00
24752;BME280;27246;52.376;4.628;2023-11-21T09:29:42;101569.16;;;11.56;100.00
24752;BME280;27246;52.376;4.628;2023-11-21T09:34:45;101598.47;;;11.57;100.00
24752;BME280;27246;52.376;4.628;2023-11-21T09:39:48;101611.47;;;11.81;100.00
24752;BME280;27246;52.376;4.628;2023-11-21T09:45:08;101622.34;;;11.49;100.00
24752;BME280;27246;52.376;4.628;2023-11-21T09:50:17;101636.66;;;11.52;100.00
24752;BME280;27246;52.376;4.628;2023-11-21T09:55:21;101652.00;;;11.63;100.00
24752;BME280;27246;52.376;4.628;2023-11-21T10:00:23;101673.50;;;11.51;100.00
24752;BME280;27246;52.376;4.628;2023-11-21T10:05:26;101670.59;;;11.95;100.00
24752;BME280;27246;52.376;4.628;2023-11-21T10:10:31;101676.84;;;11.71;100.00
24752;BME280;27246;52.376;4.628;2023-11-21T10:15:34;101680.47;;;11.72;100.00
24752;BME280;27246;52.376;4.628;2023-11-21T10:20:36;101699.75;;;11.37;100.00
24752;BME280;27246;52.376;4.628;2023-11-21T10:25:41;101708.19;;;11.70;100.00
24752;BME280;27246;52.376;4.628;2023-11-21T10:30:47;101714.97;;;11.84;100.00
24752;BME280;27246;52.376;4.628;2023-11-21T10:35:50;101711.13;;;11.69;100.00
24752;BME280;27246;52.376;4.628;2023-11-21T10:40:53;101715.75;;;11.68;100.00
24752;BME280;27246;52.376;4.628;2023-11-21T10:45:58;101725.38;;;11.64;100.00
24752;BME280;27246;52.376;4.628;2023-11-21T10:51:06;101727.28;;;12.40;100.00
24752;BME280;27246;52.376;4.628;2023-11-21T10:56:09;101736.09;;;12.01;100.00
24752;BME280;27246;52.376;4.628;2023-11-21T11:01:19;101728.50;;;11.69;100.00
24752;BME280;27246;52.376;4.628;2023-11-21T11:06:26;101736.03;;;11.59;100.00
24752;BME280;27246;52.376;4.628;2023-11-21T11:11:30;101741.75;;;11.66;100.00
24752;BME280;27246;52.376;4.628;2023-11-21T11:16:32;101738.81;;;11.67;100.00
24752;BME280;27246;52.376;4.628;2023-11-21T11:37:44;101755.84;;;11.63;100.00
24752;BME280;27246;52.376;4.628;2023-11-21T11:43:00;101761.47;;;11.53;100.00
24752;BME280;27246;52.376;4.628;2023-11-21T11:48:05;101768.94;;;11.60;100.00
24752;BME280;27246;52.376;4.628;2023-11-21T11:59:13;101777.25;;;11.43;100.00
24752;BME280;27246;52.376;4.628;2023-11-21T12:25:36;101801.38;;;12.35;100.00
24752;BME280;27246;52.376;4.628;2023-11-21T12:30:56;101820.41;;;12.47;99.62
24752;BME280;27246;52.376;4.628;2023-11-21T12:36:22;101823.41;;;11.93;98.93
24752;BME280;27246;52.376;4.628;2023-11-21T12:41:25;101821.56;;;12.01;98.38
24752;BME280;27246;52.376;4.628;2023-11-21T12:46:42;101829.72;;;11.85;97.70
24752;BME280;27246;52.376;4.628;2023-11-21T12:51:48;101840.88;;;12.01;96.69
24752;BME280;27246;52.376;4.628;2023-11-21T12:56:50;101853.19;;;11.45;95.46
24752;BME280;27246;52.376;4.628;2023-11-21T13:01:54;101859.56;;;11.46;97.63
24752;BME280;27246;52.376;4.628;2023-11-21T13:07:15;101867.22;;;11.34;96.25
24752;BME280;27246;52.376;4.628;2023-11-21T13:12:24;101876.00;;;11.55;97.00
24752;BME280;27246;52.376;4.628;2023-11-21T13:17:26;101881.56;;;11.81;97.66
24752;BME280;27246;52.376;4.628;2023-11-21T13:22:30;101885.06;;;11.30;96.75
24752;BME280;27246;52.376;4.628;2023-11-21T13:27:33;101885.97;;;12.53;96.38
24752;BME280;27246;52.376;4.628;2023-11-21T13:32:38;101889.78;;;11.55;95.83
24752;BME280;27246;52.376;4.628;2023-11-21T13:37:51;101895.47;;;11.36;95.67
24752;BME280;27246;52.376;4.628;2023-11-21T13:42:55;101895.44;;;11.00;95.37
24752;BME280;27246;52.376;4.628;2023-11-21T13:48:00;101902.19;;;10.88;95.61
24752;BME280;27246;52.376;4.628;2023-11-21T13:53:03;101905.47;;;11.19;96.86
24752;BME280;27246;52.376;4.628;2023-11-21T13:58:29;101922.03;;;11.09;96.61
24752;BME280;27246;52.376;4.628;2023-11-21T14:03:49;101926.44;;;11.20;95.22
24752;BME280;27246;52.376;4.628;2023-11-21T14:08:58;101935.00;;;10.99;95.69
24752;BME280;27246;52.376;4.628;2023-11-21T14:14:02;101935.16;;;10.70;96.53
24752;BME280;27246;52.376;4.628;2023-11-21T14:19:04;101946.16;;;10.97;97.75
24752;BME280;27246;52.376;4.628;2023-11-21T14:24:20;101961.59;;;11.08;95.28
24752;BME280;27246;52.376;4.628;2023-11-21T14:29:22;101961.22;;;11.03;96.00
24752;BME280;27246;52.376;4.628;2023-11-21T14:34:26;101967.19;;;10.61;95.19
24752;BME280;27246;52.376;4.628;2023-11-21T14:39:29;101978.00;;;10.35;97.13
24752;BME280;27246;52.376;4.628;2023-11-21T14:44:34;101978.84;;;10.26;98.44
24752;BME280;27246;52.376;4.628;2023-11-21T14:49:42;101989.81;;;10.55;96.57
24752;BME280;27246;52.376;4.628;2023-11-21T14:54:59;102003.00;;;10.41;96.02
24752;BME280;27246;52.376;4.628;2023-11-21T15:00:23;102011.13;;;10.33;94.34
24752;BME280;27246;52.376;4.628;2023-11-21T15:06:04;102019.69;;;10.30;94.95
24752;BME280;27246;52.376;4.628;2023-11-21T15:11:28;102036.56;;;10.55;94.37
24752;BME280;27246;52.376;4.628;2023-11-21T15:16:33;102052.22;;;10.25;91.48
24752;BME280;27246;52.376;4.628;2023-11-21T15:21:36;102065.38;;;10.12;93.01
24752;BME280;27246;52.376;4.628;2023-11-21T15:26:38;102076.53;;;10.00;92.73
24752;BME280;27246;52.376;4.628;2023-11-21T15:31:40;102095.06;;;9.98;93.45
24752;BME280;27246;52.376;4.628;2023-11-21T15:36:50;102104.88;;;10.01;94.04
24752;BME280;27246;52.376;4.628;2023-11-21T15:41:55;102118.34;;;10.14;94.50
24752;BME280;27246;52.376;4.628;2023-11-21T15:46:56;102102.56;;;10.16;94.84
24752;BME280;27246;52.376;4.628;2023-11-21T15:51:59;102121.84;;;10.35;94.87
24752;BME280;27246;52.376;4.628;2023-11-21T15:57:01;102136.59;;;10.44;93.91
24752;BME280;27246;52.376;4.628;2023-11-21T16:02:06;102143.25;;;10.71;91.15
24752;BME280;27246;52.376;4.628;2023-11-21T16:07:09;102153.09;;;10.44;91.08
24752;BME280;27246;52.376;4.628;2023-11-21T16:12:12;102180.75;;;10.62;91.50
24752;BME280;27246;52.376;4.628;2023-11-21T16:17:15;102189.00;;;10.72;89.47
24752;BME280;27246;52.376;4.628;2023-11-21T16:22:32;102192.88;;;10.11;89.20
24752;BME280;27246;52.376;4.628;2023-11-21T16:27:40;102214.84;;;10.11;90.18
24752;BME280;27246;52.376;4.628;2023-11-21T16:32:43;102207.22;;;10.24;90.34
24752;BME280;27246;52.376;4.628;2023-11-21T16:37:55;102234.59;;;10.35;89.64
24752;BME280;27246;52.376;4.628;2023-11-21T16:43:00;102247.78;;;10.41;89.20
24752;BME280;27246;52.376;4.628;2023-11-21T16:48:06;102274.53;;;10.30;88.22
24752;BME280;27246;52.376;4.628;2023-11-21T16:53:10;102286.31;;;10.11;87.36
24752;BME280;27246;52.376;4.628;2023-11-21T16:58:12;102290.47;;;9.95;87.79
24752;BME280;27246;52.376;4.628;2023-11-21T17:03:23;102311.41;;;9.87;87.85
24752;BME280;27246;52.376;4.628;2023-11-21T17:08:27;102304.31;;;9.84;86.67
24752;BME280;27246;52.376;4.628;2023-11-21T17:13:31;102324.09;;;9.57;87.31
24752;BME280;27246;52.376;4.628;2023-11-21T17:18:33;102337.09;;;9.55;87.54
24752;BME280;27246;52.376;4.628;2023-11-21T17:23:35;102346.16;;;9.46;87.20
24752;BME280;27246;52.376;4.628;2023-11-21T17:28:37;102342.53;;;9.66;86.89
24752;BME280;27246;52.376;4.628;2023-11-21T17:33:40;102346.56;;;9.62;87.24
24752;BME280;27246;52.376;4.628;2023-11-21T17:38:46;102339.00;;;9.54;86.92
24752;BME280;27246;52.376;4.628;2023-11-21T17:43:52;102340.78;;;9.65;87.90
24752;BME280;27246;52.376;4.628;2023-11-21T17:48:55;102354.25;;;9.68;88.30
24752;BME280;27246;52.376;4.628;2023-11-21T17:54:00;102359.53;;;9.81;88.55
24752;BME280;27246;52.376;4.628;2023-11-21T17:59:04;102377.34;;;9.87;89.08
24752;BME280;27246;52.376;4.628;2023-11-21T18:04:06;102380.34;;;9.84;88.56
24752;BME280;27246;52.376;4.628;2023-11-21T18:09:08;102388.03;;;9.80;89.26
24752;BME280;27246;52.376;4.628;2023-11-21T18:14:34;102401.47;;;9.83;88.98
24752;BME280;27246;52.376;4.628;2023-11-21T18:19:38;102428.97;;;9.83;89.28
24752;BME280;27246;52.376;4.628;2023-11-21T18:24:40;102434.78;;;9.69;89.97
24752;BME280;27246;52.376;4.628;2023-11-21T18:29:42;102452.53;;;9.65;91.14
24752;BME280;27246;52.376;4.628;2023-11-21T18:34:49;102459.06;;;9.64;90.96
24752;BME280;27246;52.376;4.628;2023-11-21T18:39:55;102465.75;;;9.71;92.31
24752;BME280;27246;52.376;4.628;2023-11-21T18:45:06;102464.59;;;9.73;92.11
24752;BME280;27246;52.376;4.628;2023-11-21T18:50:13;102482.56;;;9.77;92.28
24752;BME280;27246;52.376;4.628;2023-11-21T18:55:19;102486.94;;;9.80;92.01
24752;BME280;27246;52.376;4.628;2023-11-21T19:00:21;102475.53;;;9.64;92.31
24752;BME280;27246;52.376;4.628;2023-11-21T19:05:25;102495.50;;;9.66;93.39
24752;BME280;27246;52.376;4.628;2023-11-21T19:10:28;102494.91;;;9.62;92.87
24752;BME280;27246;52.376;4.628;2023-11-21T19:15:31;102499.25;;;9.65;92.71
24752;BME280;27246;52.376;4.628;2023-11-21T19:20:33;102502.84;;;9.65;92.14
24752;BME280;27246;52.376;4.628;2023-11-21T19:25:39;102505.28;;;9.47;91.61
24752;BME280;27246;52.376;4.628;2023-11-21T19:30:44;102513.59;;;9.36;92.20
24752;BME280;27246;52.376;4.628;2023-11-21T19:35:52;102515.69;;;9.44;92.40
24752;BME280;27246;52.376;4.628;2023-11-21T19:40:54;102520.47;;;9.30;91.12
24752;BME280;27246;52.376;4.628;2023-11-21T19:45:56;102531.31;;;9.32;92.63
24752;BME280;27246;52.376;4.628;2023-11-21T19:50:58;102525.84;;;9.32;90.94
24752;BME280;27246;52.376;4.628;2023-11-21T19:56:00;102530.56;;;9.30;91.61
24752;BME280;27246;52.376;4.628;2023-11-21T20:01:02;102529.94;;;9.37;91.71
24752;BME280;27246;52.376;4.628;2023-11-21T20:06:05;102542.31;;;9.32;91.63
24752;BME280;27246;52.376;4.628;2023-11-21T20:11:08;102548.44;;;9.24;91.42
24752;BME280;27246;52.376;4.628;2023-11-21T20:16:10;102566.78;;;9.24;91.47
24752;BME280;27246;52.376;4.628;2023-11-21T20:21:18;102568.91;;;9.31;91.81
24752;BME280;27246;52.376;4.628;2023-11-21T20:26:24;102566.91;;;9.33;91.76
24752;BME280;27246;52.376;4.628;2023-11-21T20:31:27;102578.97;;;9.31;91.26
24752;BME280;27246;52.376;4.628;2023-11-21T20:36:29;102580.22;;;9.38;90.61
24752;BME280;27246;52.376;4.628;2023-11-21T20:41:30;102578.34;;;9.38;90.36
24752;BME280;27246;52.376;4.628;2023-11-21T20:46:33;102582.84;;;9.39;89.26
24752;BME280;27246;52.376;4.628;2023-11-21T20:51:35;102597.09;;;9.33;89.69
24752;BME280;27246;52.376;4.628;2023-11-21T20:56:36;102613.94;;;9.29;88.12
24752;BME280;27246;52.376;4.628;2023-11-21T21:01:38;102619.19;;;9.20;88.76
24752;BME280;27246;52.376;4.628;2023-11-21T21:06:40;102608.81;;;9.24;88.84
24752;BME280;27246;52.376;4.628;2023-11-21T21:11:42;102614.22;;;9.03;88.10
24752;BME280;27246;52.376;4.628;2023-11-21T21:16:48;102609.81;;;9.00;88.83
24752;BME280;27246;52.376;4.628;2023-11-21T21:21:54;102618.19;;;8.99;88.83
24752;BME280;27246;52.376;4.628;2023-11-21T21:26:59;102632.19;;;9.07;89.42
24752;BME280;27246;52.376;4.628;2023-11-21T21:32:02;102638.25;;;9.11;88.59
24752;BME280;27246;52.376;4.628;2023-11-21T21:37:06;102647.25;;;8.90;89.34
24752;BME280;27246;52.376;4.628;2023-11-21T21:42:08;102670.59;;;9.07;89.69
24752;BME280;27246;52.376;4.628;2023-11-21T21:47:11;102662.47;;;9.06;88.79
24752;BME280;27246;52.376;4.628;2023-11-21T21:52:14;102657.13;;;8.93;88.69
24752;BME280;27246;52.376;4.628;2023-11-21T21:57:19;102678.19;;;9.04;87.74
24752;BME280;27246;52.376;4.628;2023-11-21T22:02:21;102682.69;;;9.05;87.88
24752;BME280;27246;52.376;4.628;2023-11-21T22:07:22;102683.09;;;9.11;87.63
24752;BME280;27246;52.376;4.628;2023-11-21T22:12:25;102693.53;;;8.95;88.56
24752;BME280;27246;52.376;4.628;2023-11-21T22:17:28;102684.56;;;9.04;88.66
24752;BME280;27246;52.376;4.628;2023-11-21T22:22:30;102691.53;;;9.08;89.01
24752;BME280;27246;52.376;4.628;2023-11-21T22:27:31;102696.28;;;9.06;88.94
24752;BME280;27246;52.376;4.628;2023-11-21T22:32:33;102691.44;;;9.10;89.22
24752;BME280;27246;52.376;4.628;2023-11-21T22:37:35;102695.16;;;9.09;89.54
24752;BME280;27246;52.376;4.628;2023-11-21T22:42:38;102690.81;;;9.17;89.89
24752;BME280;27246;52.376;4.628;2023-11-21T22:47:41;102698.53;;;9.12;89.80
24752;BME280;27246;52.376;4.628;2023-11-21T22:52:43;102698.78;;;8.98;89.92
24752;BME280;27246;52.376;4.628;2023-11-21T22:58:05;102700.50;;;8.88;91.51
24752;BME280;27246;52.376;4.628;2023-11-21T23:03:09;102693.25;;;8.75;91.49
24752;BME280;27246;52.376;4.628;2023-11-21T23:08:12;102704.00;;;8.90;91.63
24752;BME280;27246;52.376;4.628;2023-11-21T23:13:17;102708.09;;;8.84;92.31
24752;BME280;27246;52.376;4.628;2023-11-21T23:18:20;102724.00;;;9.03;92.56
24752;BME280;27246;52.376;4.628;2023-11-21T23:23:29;102714.53;;;9.07;92.25
24752;BME280;27246;52.376;4.628;2023-11-21T23:28:31;102710.09;;;8.82;90.97
24752;BME280;27246;52.376;4.628;2023-11-21T23:33:33;102712.22;;;8.90;92.13
24752;BME280;27246;52.376;4.628;2023-11-21T23:38:35;102715.50;;;8.95;92.79
24752;BME280;27246;52.376;4.628;2023-11-21T23:43:37;102714.22;;;8.88;92.70
24752;BME280;27246;52.376;4.628;2023-11-21T23:48:39;102707.06;;;8.74;92.97
24752;BME280;27246;52.376;4.628;2023-11-21T23:53:41;102700.94;;;8.59;94.24
24752;BME280;27246;52.376;4.628;2023-11-21T23:58:44;102703.19;;;8.65;93.77
